createdAt,value
2023-05-19T00:01:01.814Z,8.67
2023-05-19T00:03:31.774Z,8.51
2023-05-19T00:06:03.116Z,8.35
2023-05-19T00:08:32.796Z,8.19
2023-05-19T00:11:02.112Z,8.33
2023-05-19T00:13:30.967Z,9.76
2023-05-19T00:15:59.133Z,11.31
2023-05-19T00:18:30.078Z,12.18
2023-05-19T00:20:58.149Z,11.63
2023-05-19T00:23:26.068Z,10.86
2023-05-19T00:25:54.209Z,10.27
2023-05-19T00:28:22.239Z,9.76
2023-05-19T00:30:52.120Z,9.36
2023-05-19T00:33:19.987Z,9.05
2023-05-19T00:35:48.103Z,8.78
2023-05-19T00:38:15.921Z,8.53
2023-05-19T00:40:43.841Z,8.30
2023-05-19T00:43:13.620Z,8.09
2023-05-19T00:45:42.187Z,7.92
2023-05-19T00:48:10.111Z,7.79
2023-05-19T00:50:38.484Z,7.69
2023-05-19T00:53:06.453Z,7.59
2023-05-19T00:55:40.513Z,7.47
2023-05-19T00:58:11.704Z,7.65
2023-05-19T01:00:39.854Z,9.16
2023-05-19T01:03:11.515Z,10.67
2023-05-19T01:05:47.969Z,11.46
2023-05-19T01:08:16.789Z,10.75
2023-05-19T01:10:44.968Z,9.94
2023-05-19T01:13:13.035Z,9.35
2023-05-19T01:16:16.070Z,8.91
2023-05-19T01:19:06.212Z,8.49
2023-05-19T01:22:13.477Z,8.17
2023-05-19T01:25:13.357Z,7.85
2023-05-19T01:28:08.442Z,7.58
2023-05-19T01:30:40.751Z,7.88
2023-05-19T01:33:16.149Z,9.41
2023-05-19T01:35:46.319Z,10.79
2023-05-19T01:38:18.350Z,11.71
2023-05-19T01:40:49.641Z,12.04
2023-05-19T01:43:22.667Z,11.16
2023-05-19T01:45:51.716Z,10.25
2023-05-19T01:48:20.124Z,9.64
2023-05-19T01:50:48.259Z,9.20
2023-05-19T01:53:16.912Z,8.86
2023-05-19T01:55:49.769Z,8.52
2023-05-19T01:58:27.093Z,8.48
2023-05-19T02:01:25.788Z,9.78
2023-05-19T02:04:12.186Z,11.20
2023-05-19T02:07:01.345Z,11.65
2023-05-19T02:10:02.771Z,10.62
2023-05-19T02:12:36.229Z,9.60
2023-05-19T02:15:17.269Z,8.97
2023-05-19T02:17:52.061Z,8.47
2023-05-19T02:20:22.293Z,8.07
2023-05-19T02:22:50.396Z,7.79
2023-05-19T02:25:18.353Z,7.54
2023-05-19T02:27:46.486Z,7.33
2023-05-19T02:30:14.458Z,7.15
2023-05-19T02:32:42.422Z,7.28
2023-05-19T02:35:10.399Z,8.63
2023-05-19T02:37:38.903Z,10.05
2023-05-19T02:40:08.043Z,11.07
2023-05-19T02:42:35.913Z,11.51
2023-05-19T02:45:04.379Z,10.67
2023-05-19T02:47:34.735Z,9.73
2023-05-19T02:50:06.338Z,9.03
2023-05-19T02:52:34.313Z,8.47
2023-05-19T02:55:02.164Z,7.99
2023-05-19T02:57:31.889Z,7.62
2023-05-19T03:00:00.131Z,7.32
2023-05-19T03:02:28.156Z,7.08
2023-05-19T03:04:56.162Z,6.88
2023-05-19T03:07:25.716Z,7.00
2023-05-19T03:09:53.628Z,8.40
2023-05-19T03:12:22.042Z,9.85
2023-05-19T03:14:50.088Z,10.89
2023-05-19T03:17:17.970Z,11.26
2023-05-19T03:19:45.758Z,10.43
2023-05-19T03:22:13.659Z,9.50
2023-05-19T03:24:42.546Z,8.84
2023-05-19T03:27:12.529Z,8.34
2023-05-19T03:29:40.770Z,7.93
2023-05-19T03:32:08.699Z,7.59
2023-05-19T03:34:36.722Z,7.32
2023-05-19T03:37:04.870Z,7.08
2023-05-19T03:39:32.777Z,6.87
2023-05-19T03:42:00.905Z,6.65
2023-05-19T03:44:28.944Z,6.78
2023-05-19T03:46:56.965Z,8.16
2023-05-19T03:49:25.230Z,9.60
2023-05-19T03:51:53.508Z,10.69
2023-05-19T03:54:22.591Z,11.54
2023-05-19T03:56:50.821Z,11.76
2023-05-19T03:59:18.979Z,10.87
2023-05-19T04:01:47.699Z,10.03
2023-05-19T04:04:15.651Z,9.42
2023-05-19T04:06:43.522Z,8.95
2023-05-19T04:09:13.988Z,8.54
2023-05-19T04:11:43.364Z,8.13
2023-05-19T04:14:11.274Z,7.80
2023-05-19T04:16:39.166Z,7.78
2023-05-19T04:19:07.248Z,9.05
2023-05-19T04:21:35.416Z,10.47
2023-05-19T04:24:06.456Z,11.57
2023-05-19T04:26:36.173Z,12.04
2023-05-19T04:29:05.151Z,11.31
2023-05-19T04:31:34.491Z,10.43
2023-05-19T04:34:02.703Z,9.80
2023-05-19T04:36:31.394Z,9.37
2023-05-19T04:39:02.806Z,9.06
2023-05-19T04:41:30.657Z,8.80
2023-05-19T04:43:58.623Z,8.56
2023-05-19T04:46:30.312Z,8.65
2023-05-19T04:49:01.499Z,10.12
2023-05-19T04:51:31.563Z,11.63
2023-05-19T04:53:59.567Z,12.41
2023-05-19T04:56:29.019Z,11.99
2023-05-19T04:58:57.154Z,11.10
2023-05-19T05:01:26.366Z,10.44
2023-05-19T05:03:55.964Z,10.01
2023-05-19T05:06:23.819Z,10.00
2023-05-19T05:08:52.380Z,11.29
2023-05-19T05:11:20.791Z,12.55
2023-05-19T05:13:49.257Z,13.51
2023-05-19T05:16:17.685Z,13.95
2023-05-19T05:18:47.022Z,13.05
2023-05-19T05:21:16.062Z,12.18
2023-05-19T05:23:44.506Z,11.60
2023-05-19T05:26:24.772Z,11.12
2023-05-19T05:28:53.290Z,10.85
2023-05-19T05:31:21.209Z,11.85
2023-05-19T05:33:49.263Z,12.99
2023-05-19T05:36:17.169Z,12.97
2023-05-19T05:38:45.029Z,12.28
2023-05-19T05:41:12.990Z,11.66
2023-05-19T05:43:40.889Z,11.74
2023-05-19T05:46:09.260Z,12.73
2023-05-19T05:48:37.633Z,13.80
2023-05-19T05:51:06.559Z,13.77
2023-05-19T05:53:43.006Z,12.82
2023-05-19T05:56:12.368Z,12.42
2023-05-19T05:58:40.902Z,13.46
2023-05-19T06:01:12.325Z,14.58
2023-05-19T06:03:44.499Z,14.88
2023-05-19T06:06:13.203Z,14.17
2023-05-19T06:08:41.191Z,13.39
2023-05-19T06:11:09.515Z,12.73
2023-05-19T06:13:38.604Z,12.77
2023-05-19T06:16:06.894Z,13.97
2023-05-19T06:18:35.917Z,14.69
2023-05-19T06:21:04.053Z,14.35
2023-05-19T06:23:31.968Z,13.66
2023-05-19T06:25:59.889Z,13.08
2023-05-19T06:28:27.988Z,12.94
2023-05-19T06:30:56.421Z,14.05
2023-05-19T06:33:26.787Z,15.19
2023-05-19T06:35:57.072Z,15.19
2023-05-19T06:38:24.980Z,14.26
2023-05-19T06:40:52.869Z,13.49
2023-05-19T06:43:21.578Z,13.01
2023-05-19T06:45:49.507Z,13.71
2023-05-19T06:48:17.978Z,14.75
2023-05-19T06:50:46.242Z,14.69
2023-05-19T06:53:14.234Z,13.98
2023-05-19T06:55:54.434Z,13.36
2023-05-19T06:58:26.978Z,13.20
2023-05-19T07:00:54.884Z,14.22
2023-05-19T07:03:23.048Z,14.91
2023-05-19T07:05:51.810Z,14.53
2023-05-19T07:08:19.671Z,13.94
2023-05-19T07:10:47.489Z,13.49
2023-05-19T07:13:15.394Z,13.89
2023-05-19T07:15:43.567Z,15.02
2023-05-19T07:18:11.877Z,15.14
2023-05-19T07:20:39.963Z,14.57
2023-05-19T07:23:07.933Z,14.10
2023-05-19T07:25:35.761Z,13.79
2023-05-19T07:28:03.814Z,14.54
2023-05-19T07:30:32.212Z,15.74
2023-05-19T07:33:00.616Z,15.67
2023-05-19T07:35:28.661Z,15.02
2023-05-19T07:37:56.602Z,14.51
2023-05-19T07:40:25.190Z,14.16
2023-05-19T07:42:53.665Z,14.42
2023-05-19T07:45:21.505Z,15.75
2023-05-19T07:47:49.694Z,16.58
2023-05-19T07:50:19.762Z,16.16
2023-05-19T07:52:47.661Z,15.58
2023-05-19T07:55:16.556Z,15.12
2023-05-19T07:57:44.532Z,14.77
2023-05-19T08:00:13.482Z,14.65
2023-05-19T08:02:41.884Z,15.55
2023-05-19T08:05:10.840Z,16.27
2023-05-19T08:07:38.978Z,15.91
2023-05-19T08:10:07.658Z,15.46
2023-05-19T08:12:36.355Z,15.18
2023-05-19T08:15:05.183Z,15.10
2023-05-19T08:17:33.233Z,16.03
2023-05-19T08:20:01.086Z,17.07
2023-05-19T08:22:29.126Z,16.86
2023-05-19T08:24:58.564Z,16.32
2023-05-19T08:27:26.950Z,15.96
2023-05-19T08:29:55.957Z,15.72
2023-05-19T08:32:24.269Z,15.57
2023-05-19T08:34:52.497Z,15.44
2023-05-19T08:37:20.400Z,15.31
2023-05-19T08:39:49.387Z,15.23
2023-05-19T08:42:17.390Z,15.23
2023-05-19T08:44:45.492Z,15.29
2023-05-19T08:47:15.232Z,15.35
2023-05-19T08:49:47.175Z,15.40
2023-05-19T08:52:52.445Z,15.48
2023-05-19T08:55:34.161Z,15.59
2023-05-19T08:58:05.096Z,15.71
2023-05-19T09:00:34.301Z,15.81
2023-05-19T09:03:17.478Z,15.90
2023-05-19T09:05:51.530Z,16.00
2023-05-19T09:08:19.789Z,16.06
2023-05-19T09:10:47.711Z,16.10
2023-05-19T09:13:16.626Z,16.15
2023-05-19T09:15:45.618Z,16.22
2023-05-19T09:18:17.903Z,16.33
2023-05-19T09:20:47.039Z,16.44
2023-05-19T09:23:17.670Z,16.56
2023-05-19T09:25:53.523Z,16.72
2023-05-19T09:28:30.629Z,16.86
2023-05-19T09:31:11.740Z,16.99
2023-05-19T09:33:46.097Z,17.06
2023-05-19T09:36:14.661Z,17.12
2023-05-19T09:38:42.832Z,17.12
2023-05-19T09:41:11.202Z,17.01
2023-05-19T09:43:39.181Z,16.87
2023-05-19T09:46:11.170Z,16.80
2023-05-19T09:48:40.192Z,16.80
2023-05-19T09:51:10.812Z,16.78
2023-05-19T09:53:39.436Z,16.67
2023-05-19T09:56:10.091Z,16.55
2023-05-19T09:58:42.706Z,16.47
2023-05-19T10:01:11.676Z,16.42
2023-05-19T10:03:41.113Z,16.43
2023-05-19T10:06:10.178Z,16.48
2023-05-19T10:08:40.020Z,16.67
2023-05-19T10:11:10.195Z,16.86
2023-05-19T10:13:40.330Z,17.02
2023-05-19T10:16:09.985Z,17.09
2023-05-19T10:18:39.971Z,17.11
2023-05-19T10:21:09.822Z,17.09
2023-05-19T10:23:38.083Z,17.12
2023-05-19T10:26:08.027Z,17.25
2023-05-19T10:28:41.119Z,17.39
2023-05-19T10:31:17.066Z,17.57
2023-05-19T10:34:24.722Z,17.76
2023-05-19T10:37:27.210Z,17.91
2023-05-19T10:39:56.152Z,17.94
2023-05-19T10:42:46.146Z,17.86
2023-05-19T10:45:27.194Z,17.71
2023-05-19T10:47:55.771Z,17.61
2023-05-19T10:50:23.752Z,17.48
2023-05-19T10:52:56.977Z,17.35
2023-05-19T10:55:53.265Z,17.22
2023-05-19T10:58:45.866Z,17.10
2023-05-19T11:01:18.266Z,16.97
2023-05-19T11:03:57.303Z,16.88
2023-05-19T11:06:32.251Z,16.82
2023-05-19T11:09:10.351Z,16.82
2023-05-19T11:11:54.088Z,16.75
2023-05-19T11:14:27.124Z,16.85
2023-05-19T11:17:00.306Z,16.89
2023-05-19T11:19:33.335Z,17.02
2023-05-19T11:22:14.221Z,17.21
2023-05-19T11:24:50.127Z,17.36
2023-05-19T11:27:21.751Z,17.46
2023-05-19T11:29:51.984Z,17.63
2023-05-19T11:32:28.509Z,17.85
2023-05-19T11:34:57.957Z,18.08
2023-05-19T11:37:27.097Z,18.21
2023-05-19T11:39:55.122Z,18.38
2023-05-19T11:42:24.129Z,18.50
2023-05-19T11:44:56.353Z,18.59
2023-05-19T11:47:24.644Z,18.70
2023-05-19T11:49:54.871Z,18.90
2023-05-19T11:52:27.617Z,19.08
2023-05-19T11:54:56.950Z,19.18
2023-05-19T11:57:24.799Z,19.19
2023-05-19T11:59:54.264Z,19.16
2023-05-19T12:02:27.779Z,19.17
2023-05-19T12:04:56.155Z,19.14
2023-05-19T12:07:26.223Z,19.04
2023-05-19T12:09:55.709Z,18.91
2023-05-19T12:12:24.029Z,18.87
2023-05-19T12:14:53.532Z,18.82
2023-05-19T12:17:24.331Z,18.83
2023-05-19T12:19:52.747Z,18.93
2023-05-19T12:22:21.844Z,19.08
2023-05-19T12:24:51.031Z,19.17
2023-05-19T12:27:26.797Z,19.18
2023-05-19T12:30:00.201Z,19.21
2023-05-19T12:32:31.186Z,19.18
2023-05-19T12:34:59.152Z,19.12
2023-05-19T12:37:28.094Z,19.02
2023-05-19T12:39:57.158Z,18.94
2023-05-19T12:42:31.697Z,18.94
2023-05-19T12:45:03.344Z,19.02
2023-05-19T12:47:36.573Z,19.03
2023-05-19T12:50:10.331Z,19.11
2023-05-19T12:52:53.401Z,19.30
2023-05-19T12:55:22.349Z,19.48
2023-05-19T12:57:57.376Z,19.60
2023-05-19T13:00:31.264Z,19.65
2023-05-19T13:03:05.139Z,19.66
2023-05-19T13:05:39.390Z,19.64
2023-05-19T13:08:09.613Z,19.62
2023-05-19T13:10:41.506Z,19.63
2023-05-19T13:13:11.143Z,19.58
2023-05-19T13:15:46.559Z,19.59
2023-05-19T13:18:15.453Z,19.53
2023-05-19T13:20:45.084Z,19.49
2023-05-19T13:23:14.546Z,19.50
2023-05-19T13:25:43.621Z,19.55
2023-05-19T13:28:11.711Z,19.61
2023-05-19T13:30:42.014Z,19.61
2023-05-19T13:33:10.240Z,19.66
2023-05-19T13:35:39.083Z,19.78
2023-05-19T13:38:12.093Z,19.85
2023-05-19T13:40:41.022Z,19.87
2023-05-19T13:43:10.022Z,19.86
2023-05-19T13:45:38.256Z,19.82
2023-05-19T13:48:07.444Z,19.82
2023-05-19T13:50:36.595Z,19.81
2023-05-19T13:53:04.742Z,19.83
2023-05-19T13:55:33.169Z,19.90
2023-05-19T13:58:00.995Z,20.02
2023-05-19T14:00:31.424Z,20.08
2023-05-19T14:03:00.493Z,20.14
2023-05-19T14:05:29.203Z,20.25
2023-05-19T14:07:58.205Z,20.28
2023-05-19T14:10:26.509Z,20.25
2023-05-19T14:13:25.289Z,20.23
2023-05-19T14:15:42.736Z,20.26
2023-05-19T14:18:11.236Z,20.23
2023-05-19T14:20:39.289Z,20.26
2023-05-19T14:23:07.272Z,20.28
2023-05-19T14:25:35.103Z,20.21
2023-05-19T14:28:02.957Z,20.08
2023-05-19T14:30:31.715Z,19.89
2023-05-19T14:33:02.018Z,19.83
2023-05-19T14:35:29.992Z,19.83
2023-05-19T14:37:58.052Z,19.90
2023-05-19T14:40:26.123Z,19.95
2023-05-19T14:42:54.222Z,20.02
2023-05-19T14:45:22.247Z,20.15
2023-05-19T14:47:50.161Z,20.14
2023-05-19T14:50:18.151Z,20.14
2023-05-19T14:52:46.078Z,20.17
2023-05-19T14:55:13.972Z,20.20
2023-05-19T14:57:41.851Z,20.20
2023-05-19T15:00:10.476Z,20.13
2023-05-19T15:02:38.722Z,20.10
2023-05-19T15:05:08.322Z,20.08
2023-05-19T15:07:36.754Z,20.07
2023-05-19T15:10:05.447Z,20.09
2023-05-19T15:12:33.427Z,20.11
2023-05-19T15:15:01.354Z,20.08
2023-05-19T15:17:29.680Z,20.03
2023-05-19T15:19:57.679Z,20.03
2023-05-19T15:22:25.550Z,20.04
2023-05-19T15:24:53.541Z,19.98
2023-05-19T15:27:21.476Z,19.93
2023-05-19T15:29:49.805Z,19.89
2023-05-19T15:32:17.699Z,19.88
2023-05-19T15:34:46.231Z,19.83
2023-05-19T15:37:14.234Z,19.74
2023-05-19T15:39:43.201Z,19.70
2023-05-19T15:42:11.686Z,19.68
2023-05-19T15:44:40.660Z,19.70
2023-05-19T15:47:08.824Z,19.74
2023-05-19T15:49:36.984Z,19.75
2023-05-19T15:52:05.849Z,19.79
2023-05-19T15:54:33.751Z,19.79
2023-05-19T15:57:01.902Z,19.82
2023-05-19T15:59:30.486Z,19.86
2023-05-19T16:01:58.490Z,19.89
2023-05-19T16:04:26.462Z,19.84
2023-05-19T16:06:54.356Z,19.83
2023-05-19T16:09:22.262Z,19.84
2023-05-19T16:11:50.214Z,19.79
2023-05-19T16:14:18.197Z,19.73
2023-05-19T16:16:46.385Z,19.69
2023-05-19T16:19:14.607Z,19.69
2023-05-19T16:21:43.125Z,19.68
2023-05-19T16:24:11.403Z,19.70
2023-05-19T16:26:39.214Z,19.74
2023-05-19T16:29:07.049Z,19.65
2023-05-19T16:31:35.018Z,19.59
2023-05-19T16:34:02.982Z,19.60
2023-05-19T16:36:32.084Z,19.66
2023-05-19T16:38:59.963Z,19.69
2023-05-19T16:41:27.817Z,19.70
2023-05-19T16:43:55.850Z,19.58
2023-05-19T16:46:23.941Z,19.36
2023-05-19T16:48:52.028Z,19.16
2023-05-19T16:51:20.043Z,18.96
2023-05-19T16:53:47.885Z,18.79
2023-05-19T16:56:15.857Z,18.64
2023-05-19T16:58:43.721Z,18.48
2023-05-19T17:01:12.295Z,18.25
2023-05-19T17:03:40.477Z,18.08
2023-05-19T17:06:08.490Z,17.94
2023-05-19T17:08:36.426Z,17.82
2023-05-19T17:11:06.584Z,17.72
2023-05-19T17:13:36.505Z,17.68
2023-05-19T17:16:04.605Z,17.65
2023-05-19T17:18:32.688Z,17.60
2023-05-19T17:21:03.883Z,17.58
2023-05-19T17:23:32.970Z,17.51
2023-05-19T17:26:02.045Z,17.44
2023-05-19T17:28:30.106Z,17.33
2023-05-19T17:30:58.560Z,17.21
2023-05-19T17:33:26.597Z,17.09
2023-05-19T17:35:54.604Z,16.95
2023-05-19T17:38:22.690Z,16.82
2023-05-19T17:40:50.796Z,16.69
2023-05-19T17:43:18.830Z,16.57
2023-05-19T17:45:47.387Z,16.48
2023-05-19T17:48:15.324Z,16.42
2023-05-19T17:50:43.636Z,16.42
2023-05-19T17:53:12.270Z,16.44
2023-05-19T17:55:41.420Z,16.40
2023-05-19T17:58:09.729Z,16.29
2023-05-19T18:00:38.068Z,16.16
2023-05-19T18:03:06.827Z,16.04
2023-05-19T18:05:35.417Z,15.92
2023-05-19T18:08:07.287Z,15.80
2023-05-19T18:10:41.463Z,15.69
2023-05-19T18:13:11.443Z,15.58
2023-05-19T18:15:39.436Z,15.46
2023-05-19T18:18:10.604Z,15.35
2023-05-19T18:20:40.906Z,15.22
2023-05-19T18:23:09.149Z,15.45
2023-05-19T18:25:37.566Z,16.73
2023-05-19T18:28:05.589Z,17.70
2023-05-19T18:30:33.691Z,17.37
2023-05-19T18:33:04.009Z,16.80
2023-05-19T18:35:32.153Z,16.29
2023-05-19T18:38:00.185Z,15.88
2023-05-19T18:40:28.251Z,15.58
2023-05-19T18:42:56.119Z,15.36
2023-05-19T18:45:23.970Z,15.21
2023-05-19T18:47:52.302Z,15.08
2023-05-19T18:50:20.691Z,15.29
2023-05-19T18:52:48.687Z,16.61
2023-05-19T18:55:16.717Z,17.61
2023-05-19T18:57:46.051Z,17.29
2023-05-19T19:00:14.907Z,16.63
2023-05-19T19:02:43.050Z,16.06
2023-05-19T19:05:13.707Z,15.61
2023-05-19T19:07:44.452Z,15.29
2023-05-19T19:10:12.838Z,15.02
2023-05-19T19:12:41.004Z,14.79
2023-05-19T19:15:09.952Z,14.97
2023-05-19T19:17:40.305Z,16.06
2023-05-19T19:20:09.823Z,16.33
2023-05-19T19:22:38.037Z,15.67
2023-05-19T19:25:06.368Z,15.04
2023-05-19T19:27:35.777Z,14.66
2023-05-19T19:30:04.820Z,15.36
2023-05-19T19:32:32.843Z,16.35
2023-05-19T19:35:00.976Z,16.29
2023-05-19T19:37:28.951Z,15.48
2023-05-19T19:39:56.920Z,14.81
2023-05-19T19:42:24.819Z,14.31
2023-05-19T19:44:56.111Z,14.29
2023-05-19T19:47:24.099Z,15.37
2023-05-19T19:49:52.076Z,16.00
2023-05-19T19:52:20.095Z,15.45
2023-05-19T19:54:48.317Z,14.74
2023-05-19T19:57:17.330Z,14.29
2023-05-19T19:59:45.734Z,15.10
2023-05-19T20:02:14.329Z,16.12
2023-05-19T20:04:42.490Z,16.23
2023-05-19T20:07:10.402Z,15.38
2023-05-19T20:09:38.372Z,14.64
2023-05-19T20:12:07.310Z,14.09
2023-05-19T20:14:35.392Z,14.05
2023-05-19T20:17:03.784Z,15.20
2023-05-19T20:19:31.749Z,16.25
2023-05-19T20:21:59.890Z,16.48
2023-05-19T20:24:27.784Z,15.63
2023-05-19T20:26:55.741Z,14.76
2023-05-19T20:29:24.082Z,14.11
2023-05-19T20:31:52.328Z,14.39
2023-05-19T20:34:20.434Z,15.47
2023-05-19T20:36:48.858Z,16.19
2023-05-19T20:39:16.685Z,15.74
2023-05-19T20:41:44.658Z,14.86
2023-05-19T20:44:12.913Z,14.16
2023-05-19T20:46:40.845Z,13.91
2023-05-19T20:49:08.629Z,14.91
2023-05-19T20:51:37.214Z,16.13
2023-05-19T20:54:06.412Z,16.93
2023-05-19T20:56:35.142Z,17.33
2023-05-19T20:59:04.187Z,16.98
2023-05-19T21:01:32.228Z,15.93
2023-05-19T21:04:01.090Z,14.99
2023-05-19T21:06:29.079Z,14.29
2023-05-19T21:08:57.036Z,14.02
2023-05-19T21:11:24.838Z,14.98
2023-05-19T21:13:54.874Z,16.04
2023-05-19T21:16:23.423Z,16.81
2023-05-19T21:18:51.392Z,17.10
2023-05-19T21:21:19.350Z,16.26
2023-05-19T21:23:47.211Z,15.31
2023-05-19T21:26:15.588Z,14.58
2023-05-19T21:28:43.955Z,14.01
2023-05-19T21:31:11.910Z,13.85
2023-05-19T21:33:39.893Z,14.90
2023-05-19T21:36:08.309Z,15.98
2023-05-19T21:38:36.208Z,16.72
2023-05-19T21:41:04.034Z,17.22
2023-05-19T21:43:31.889Z,17.34
2023-05-19T21:45:59.739Z,16.43
2023-05-19T21:48:27.668Z,15.46
2023-05-19T21:50:55.958Z,14.76
2023-05-19T21:53:24.652Z,14.21
2023-05-19T21:55:52.609Z,13.77
2023-05-19T21:58:20.594Z,13.71
2023-05-19T22:00:54.506Z,14.85
2023-05-19T22:03:22.846Z,16.02
2023-05-19T22:05:55.631Z,16.80
2023-05-19T22:08:23.611Z,17.34
2023-05-19T22:10:52.979Z,17.44
2023-05-19T22:13:21.801Z,16.53
2023-05-19T22:15:51.048Z,15.60
2023-05-19T22:18:19.071Z,14.87
2023-05-19T22:20:47.083Z,14.32
2023-05-19T22:23:15.432Z,14.20
2023-05-19T22:25:43.447Z,15.31
2023-05-19T22:28:11.409Z,16.39
2023-05-19T22:30:41.017Z,17.14
2023-05-19T22:33:11.457Z,17.41
2023-05-19T22:35:39.450Z,16.62
2023-05-19T22:38:08.813Z,15.73
2023-05-19T22:40:38.868Z,15.05
2023-05-19T22:43:06.864Z,14.52
2023-05-19T22:45:36.762Z,14.37
2023-05-19T22:48:05.652Z,15.40
2023-05-19T22:50:33.578Z,16.43
2023-05-19T22:53:01.613Z,17.14
2023-05-19T22:55:29.454Z,17.25
2023-05-19T22:57:57.314Z,16.40
2023-05-19T23:00:25.773Z,15.52
2023-05-19T23:02:53.696Z,14.85
2023-05-19T23:05:21.592Z,14.31
2023-05-19T23:07:49.999Z,14.36
2023-05-19T23:10:18.119Z,15.51
2023-05-19T23:12:45.979Z,16.53
2023-05-19T23:15:13.950Z,17.24
2023-05-19T23:17:41.905Z,17.51
2023-05-19T23:20:11.004Z,16.70
2023-05-19T23:22:38.994Z,15.79
2023-05-19T23:25:07.920Z,15.14
2023-05-19T23:27:36.679Z,14.66
2023-05-19T23:30:05.545Z,14.56
2023-05-19T23:32:33.376Z,15.66
2023-05-19T23:35:16.264Z,16.78
2023-05-19T23:37:44.334Z,17.64
2023-05-19T23:40:13.053Z,17.88
2023-05-19T23:42:41.351Z,17.03
2023-05-19T23:45:09.712Z,16.09
2023-05-19T23:47:37.741Z,15.34
2023-05-19T23:50:06.206Z,14.77
2023-05-19T23:52:34.169Z,14.31
2023-05-19T23:55:03.902Z,14.25
2023-05-19T23:57:32.150Z,15.26
